Time;durP1;ratioP1;P1;durP2;ratioP2;P2;SDS_P1;SDS_P2;PMS_P1;PMS_P2;Temp;Humidity;BMP_temperature;BMP_pressure;BME280_temperature;BME280_humidity;BME280_pressure;Samples;Min_cycle;Max_cycle;Signal;HPM_P1;HPM_P2
2022/05/06 00:02:07;;;;;;;24.70;19.83;;;12.80;99.90;;;;;;4814048;29;20526;-87
2022/05/06 00:04:32;;;;;;;24.43;19.00;;;12.80;99.90;;;;;;4836865;29;20230;-87
2022/05/06 00:07:01;;;;;;;23.07;19.50;;;12.80;99.90;;;;;;4827174;29;20828;-88
2022/05/06 00:09:26;;;;;;;21.70;19.10;;;12.80;99.90;;;;;;4818153;29;20250;-87
2022/05/06 00:11:57;;;;;;;22.43;18.93;;;12.80;99.90;;;;;;4820579;29;20447;-87
2022/05/06 00:14:25;;;;;;;20.37;18.27;;;12.80;99.90;;;;;;4822709;29;20447;-87
2022/05/06 00:16:54;;;;;;;21.27;19.07;;;12.70;99.90;;;;;;4825454;29;20451;-88
2022/05/06 00:19:22;;;;;;;20.57;16.57;;;12.70;99.90;;;;;;4820136;29;21055;-87
2022/05/06 00:21:51;;;;;;;19.40;17.00;;;12.60;99.90;;;;;;4839462;29;20471;-87
2022/05/06 00:24:16;;;;;;;17.50;15.63;;;12.60;99.90;;;;;;4821512;29;20454;-88
2022/05/06 00:26:42;;;;;;;18.53;15.70;;;12.60;99.90;;;;;;4824960;29;20971;-88
2022/05/06 00:29:09;;;;;;;19.63;17.70;;;12.60;99.90;;;;;;4834782;29;20238;-88
2022/05/06 00:31:34;;;;;;;18.83;16.93;;;12.50;99.90;;;;;;4810778;29;20549;-87
2022/05/06 00:34:00;;;;;;;21.13;18.67;;;12.20;99.90;;;;;;4834861;29;20513;-87
2022/05/06 00:36:25;;;;;;;21.97;18.00;;;12.20;99.90;;;;;;4839927;29;20405;-87
2022/05/06 00:38:51;;;;;;;23.20;18.47;;;12.20;99.90;;;;;;4839021;29;21082;-87
2022/05/06 00:41:17;;;;;;;20.27;18.13;;;12.20;99.90;;;;;;4824942;29;20873;-87
2022/05/06 00:43:43;;;;;;;21.83;18.87;;;12.30;99.90;;;;;;4825353;29;20198;-87
2022/05/06 00:46:12;;;;;;;20.23;18.03;;;12.30;99.90;;;;;;4827302;29;20547;-87
2022/05/06 00:48:40;;;;;;;22.93;19.00;;;12.30;99.90;;;;;;4827566;29;20223;-86
2022/05/06 00:51:24;;;;;;;23.57;18.40;;;12.40;99.90;;;;;;4821475;29;20965;-87
2022/05/06 00:53:52;;;;;;;21.87;19.53;;;12.40;99.90;;;;;;4820802;29;20454;-87
2022/05/06 00:56:18;;;;;;;20.73;18.60;;;12.50;99.90;;;;;;4819426;29;20467;-87
2022/05/06 00:58:45;;;;;;;19.73;17.63;;;12.50;99.90;;;;;;4827676;29;20451;-86
2022/05/06 01:01:11;;;;;;;21.97;17.40;;;12.50;99.90;;;;;;4831668;29;20457;-87
2022/05/06 01:03:36;;;;;;;20.20;18.10;;;12.60;99.90;;;;;;4818968;29;20521;-86
2022/05/06 01:06:07;;;;;;;19.83;17.73;;;12.60;99.90;;;;;;4840336;29;20915;-86
2022/05/06 01:08:34;;;;;;;20.63;18.43;;;12.60;99.90;;;;;;4819405;29;20487;-86
2022/05/06 01:11:00;;;;;;;19.70;17.60;;;12.60;99.90;;;;;;4817339;29;20459;-85
2022/05/06 01:13:27;;;;;;;22.80;18.13;;;12.50;99.90;;;;;;4823027;29;20457;-87
2022/05/06 01:15:56;;;;;;;20.13;18.03;;;12.60;99.90;;;;;;4837132;29;20501;-87
2022/05/06 01:18:22;;;;;;;20.10;17.90;;;12.50;99.90;;;;;;4832576;29;20628;-87
2022/05/06 01:20:55;;;;;;;20.90;17.80;;;12.50;99.90;;;;;;4812719;29;20550;-87
2022/05/06 01:23:23;;;;;;;17.73;15.83;;;12.50;99.90;;;;;;4813742;29;20455;-87
2022/05/06 01:25:48;;;;;;;19.60;16.60;;;12.50;99.90;;;;;;4829966;29;20458;-88
2022/05/06 01:28:20;;;;;;;18.13;16.20;;;12.50;99.90;;;;;;4828625;29;20445;-87
2022/05/06 01:30:50;;;;;;;18.93;16.90;;;12.50;99.90;;;;;;4818931;29;21364;-87
2022/05/06 01:33:18;;;;;;;20.07;17.90;;;12.60;99.90;;;;;;4824632;29;20545;-87
2022/05/06 01:35:52;;;;;;;21.10;17.77;;;12.60;99.90;;;;;;4828050;29;20532;-87
2022/05/06 01:38:39;;;;;;;19.73;17.00;;;12.60;99.90;;;;;;4830337;29;20458;-87
2022/05/06 01:41:10;;;;;;;20.43;17.33;;;12.70;99.90;;;;;;4833021;29;21368;-88
2022/05/06 01:43:39;;;;;;;18.27;16.37;;;12.70;99.90;;;;;;4829433;29;20462;-88
2022/05/06 01:46:06;;;;;;;19.60;16.47;;;12.70;99.90;;;;;;4845405;29;20446;-88
2022/05/06 01:48:33;;;;;;;18.10;15.67;;;12.60;99.90;;;;;;4833591;29;20487;-88
2022/05/06 01:51:00;;;;;;;20.00;17.00;;;12.70;99.90;;;;;;4816335;29;20515;-88
2022/05/06 01:53:26;;;;;;;21.40;17.90;;;12.60;99.90;;;;;;4844694;29;20484;-87
2022/05/06 01:55:52;;;;;;;19.80;17.80;;;12.60;99.90;;;;;;4825170;29;21060;-87
2022/05/06 01:58:17;;;;;;;20.40;18.20;;;12.60;99.90;;;;;;4831699;29;20665;-87
2022/05/06 02:00:43;;;;;;;21.10;17.87;;;12.60;99.90;;;;;;4823100;29;20636;-87
2022/05/06 02:05:16;;;;;;;19.47;17.37;;;12.60;99.90;;;;;;4818877;29;21327;-88
2022/05/06 02:05:54;;;;;;;19.70;17.80;;;12.70;99.90;;;;;;4826309;29;20198;-88
2022/05/06 02:08:20;;;;;;;18.37;16.57;;;12.60;99.90;;;;;;4830312;29;20459;-88
2022/05/06 02:10:45;;;;;;;17.13;15.43;;;12.60;99.90;;;;;;4835548;29;20199;-88
2022/05/06 02:13:11;;;;;;;18.17;16.23;;;12.60;99.90;;;;;;4817709;29;20743;-87
2022/05/06 02:15:38;;;;;;;19.83;16.67;;;12.60;99.90;;;;;;4835137;29;20194;-87
2022/05/06 02:18:04;;;;;;;18.30;15.90;;;12.50;99.90;;;;;;4849304;29;20187;-87
2022/05/06 02:20:30;;;;;;;17.90;16.00;;;12.60;99.90;;;;;;4842866;29;20695;-87
2022/05/06 02:22:56;;;;;;;17.60;15.67;;;12.60;99.90;;;;;;4827660;29;20439;-86
2022/05/06 02:25:22;;;;;;;18.23;16.43;;;12.60;99.90;;;;;;4830632;29;20214;-85
2022/05/06 02:27:48;;;;;;;18.53;16.53;;;12.60;99.90;;;;;;4833111;29;20571;-84
2022/05/06 02:33:13;;;;;;;16.87;15.17;;;12.60;99.90;;;;;;4829115;29;20449;-84
2022/05/06 02:35:41;;;;;;;18.80;16.13;;;12.50;99.90;;;;;;4837195;29;20470;-84
2022/05/06 02:38:08;;;;;;;18.07;16.17;;;12.50;99.90;;;;;;4827734;29;20449;-84
2022/05/06 02:40:35;;;;;;;18.80;16.80;;;12.50;99.90;;;;;;4850703;29;20455;-85
2022/05/06 02:43:05;;;;;;;19.20;17.27;;;12.50;99.90;;;;;;4831241;29;20462;-84
2022/05/06 02:45:32;;;;;;;21.83;18.40;;;12.50;99.90;;;;;;4849161;29;20585;-84
2022/05/06 02:47:57;;;;;;;20.87;17.90;;;12.50;99.90;;;;;;4838176;29;20460;-84
2022/05/06 02:50:25;;;;;;;21.50;18.00;;;12.50;99.90;;;;;;4830321;29;20491;-84
2022/05/06 02:52:51;;;;;;;19.47;17.43;;;12.50;99.90;;;;;;4839795;29;20195;-85
2022/05/06 02:55:17;;;;;;;19.97;17.90;;;12.60;99.90;;;;;;4827195;29;21106;-84
2022/05/06 02:57:43;;;;;;;20.90;18.70;;;12.60;99.90;;;;;;4839364;29;20875;-85
2022/05/06 03:00:09;;;;;;;19.10;17.10;;;12.50;99.90;;;;;;4835323;29;21171;-84
2022/05/06 03:02:35;;;;;;;22.77;17.07;;;12.60;99.90;;;;;;4828048;29;20201;-84
2022/05/06 03:05:01;;;;;;;21.63;17.40;;;12.50;99.90;;;;;;4835465;29;20595;-84
2022/05/06 03:07:27;;;;;;;20.47;18.13;;;12.50;99.90;;;;;;4838239;29;20455;-84
2022/05/06 03:09:52;;;;;;;21.50;17.00;;;12.60;99.90;;;;;;4834033;29;20578;-84
2022/05/06 03:12:26;;;;;;;20.90;17.00;;;12.60;99.90;;;;;;4836126;29;20610;-84
2022/05/06 03:14:53;;;;;;;20.50;17.20;;;12.60;99.90;;;;;;4842270;29;22256;-84
2022/05/06 03:17:19;;;;;;;19.30;15.90;;;12.60;99.90;;;;;;4843410;29;20483;-84
2022/05/06 03:19:44;;;;;;;18.23;16.33;;;12.60;99.90;;;;;;4847633;29;21056;-85
2022/05/06 03:22:12;;;;;;;18.97;16.97;;;12.50;99.90;;;;;;4833291;29;20906;-84
2022/05/06 03:24:38;;;;;;;20.77;18.27;;;12.50;99.90;;;;;;4829931;29;20206;-85
2022/05/06 03:27:04;;;;;;;19.10;17.10;;;12.50;99.90;;;;;;4843763;29;20442;-85
2022/05/06 03:29:32;;;;;;;18.63;16.73;;;12.50;99.90;;;;;;4827652;29;20237;-84
2022/05/06 03:32:00;;;;;;;18.87;17.03;;;12.50;99.90;;;;;;4836148;29;20473;-84
2022/05/06 03:34:25;;;;;;;20.70;16.50;;;12.50;99.90;;;;;;4834106;29;20443;-85
2022/05/06 03:36:51;;;;;;;20.50;17.10;;;12.50;99.90;;;;;;4855056;29;20973;-84
2022/05/06 03:39:16;;;;;;;20.50;17.97;;;12.50;99.90;;;;;;4854512;29;20328;-84
2022/05/06 03:41:42;;;;;;;18.07;15.87;;;12.50;99.90;;;;;;4826284;29;20203;-84
2022/05/06 03:44:07;;;;;;;19.57;17.57;;;12.50;99.90;;;;;;4842442;29;20222;-85
2022/05/06 03:46:33;;;;;;;19.03;17.03;;;12.50;99.90;;;;;;4847125;29;20201;-85
2022/05/06 03:49:08;;;;;;;20.63;18.40;;;12.50;99.90;;;;;;4823579;29;20226;-85
2022/05/06 03:51:33;;;;;;;21.00;18.80;;;12.40;99.90;;;;;;4845640;29;20206;-85
2022/05/06 03:53:59;;;;;;;21.07;18.50;;;12.30;99.90;;;;;;4829938;29;20463;-85
2022/05/06 03:56:25;;;;;;;20.90;18.80;;;12.20;99.90;;;;;;4852777;29;20202;-85
2022/05/06 03:58:52;;;;;;;23.47;18.90;;;12.20;99.90;;;;;;4835801;29;20225;-85
2022/05/06 04:01:19;;;;;;;21.70;18.37;;;12.20;99.90;;;;;;4832109;29;20439;-84
2022/05/06 04:03:46;;;;;;;24.20;19.70;;;12.10;99.90;;;;;;4824235;29;20455;-84
2022/05/06 04:06:14;;;;;;;23.10;19.00;;;12.00;99.90;;;;;;4853396;29;20840;-84
2022/05/06 04:08:41;;;;;;;27.27;19.40;;;11.90;99.90;;;;;;4833457;29;20489;-84
2022/05/06 04:11:08;;;;;;;24.97;20.47;;;11.90;99.90;;;;;;4835725;29;20544;-84
2022/05/06 04:13:34;;;;;;;23.87;19.60;;;11.80;99.90;;;;;;4834611;29;20863;-84
2022/05/06 04:16:01;;;;;;;23.70;18.23;;;11.90;99.90;;;;;;4832842;29;20482;-84
2022/05/06 04:18:27;;;;;;;22.50;18.63;;;12.00;99.90;;;;;;4834663;29;20458;-84
2022/05/06 04:23:38;;;;;;;18.20;16.30;;;12.10;99.90;;;;;;4837650;29;20692;-83
2022/05/06 04:26:06;;;;;;;19.23;17.17;;;12.20;99.90;;;;;;4829355;29;20451;-83
2022/05/06 04:28:32;;;;;;;19.30;17.30;;;12.20;99.90;;;;;;4829853;29;20195;-83
2022/05/06 04:30:58;;;;;;;19.43;16.23;;;12.20;99.90;;;;;;4818524;29;20454;-83
2022/05/06 04:33:25;;;;;;;19.10;16.33;;;12.10;99.90;;;;;;4828080;29;20451;-83
2022/05/06 04:35:51;;;;;;;19.27;16.03;;;12.10;99.90;;;;;;4824234;29;20474;-83
2022/05/06 04:38:17;;;;;;;18.63;16.27;;;12.10;99.90;;;;;;4843894;29;20576;-83
2022/05/06 04:40:43;;;;;;;19.23;16.60;;;12.10;99.90;;;;;;4826484;29;21520;-83
2022/05/06 04:43:10;;;;;;;18.30;15.67;;;12.10;99.90;;;;;;4824604;29;20556;-83
2022/05/06 04:45:37;;;;;;;17.63;15.80;;;12.20;99.90;;;;;;4821653;29;20190;-83
2022/05/06 04:48:05;;;;;;;16.90;15.00;;;12.30;99.90;;;;;;4816724;29;20450;-85
2022/05/06 04:50:37;;;;;;;18.20;16.03;;;12.30;99.90;;;;;;4812223;29;23018;-85
2022/05/06 04:53:07;;;;;;;17.53;14.50;;;12.30;99.90;;;;;;4818523;29;20451;-86
2022/05/06 04:55:33;;;;;;;16.10;14.50;;;12.30;99.90;;;;;;4817620;29;20988;-85
2022/05/06 04:57:58;;;;;;;18.20;15.23;;;12.40;99.90;;;;;;4820451;29;20785;-86
2022/05/06 05:00:24;;;;;;;16.73;15.03;;;12.30;99.90;;;;;;4830511;29;20852;-85
2022/05/06 05:02:49;;;;;;;19.50;16.17;;;12.40;99.90;;;;;;4827340;29;20273;-86
2022/05/06 05:05:15;;;;;;;17.20;15.47;;;12.30;99.90;;;;;;4837743;29;20201;-86
2022/05/06 05:07:41;;;;;;;17.33;15.10;;;12.30;99.90;;;;;;4824033;29;20288;-91
2022/05/06 05:10:38;;;;;;;20.83;16.20;;;12.30;99.90;;;;;;4819018;29;20482;-92
2022/05/06 05:13:04;;;;;;;16.23;14.30;;;12.30;99.90;;;;;;4828916;29;21215;-89
2022/05/06 05:15:44;;;;;;;17.47;15.67;;;12.30;99.90;;;;;;4811227;29;20466;-87
2022/05/06 05:18:10;;;;;;;16.03;14.33;;;12.30;99.90;;;;;;4832590;29;20467;-90
2022/05/06 05:20:59;;;;;;;18.00;16.10;;;12.40;99.90;;;;;;4830296;29;20455;-88
2022/05/06 05:23:40;;;;;;;17.67;15.80;;;12.40;99.90;;;;;;4829281;29;20194;-87
2022/05/06 05:26:06;;;;;;;17.63;15.90;;;12.50;99.90;;;;;;4853578;29;20865;-88
2022/05/06 05:28:37;;;;;;;17.57;15.80;;;12.50;99.90;;;;;;4836150;29;20454;-88
2022/05/06 05:31:07;;;;;;;19.10;15.10;;;12.50;99.90;;;;;;4848942;29;20186;-87
2022/05/06 05:34:00;;;;;;;17.50;15.70;;;12.60;99.90;;;;;;4835381;29;20458;-89
2022/05/06 05:36:26;;;;;;;15.17;13.57;;;12.60;99.90;;;;;;4833931;29;20878;-89
2022/05/06 05:38:56;;;;;;;16.83;14.10;;;12.60;99.90;;;;;;4839996;29;20458;-89
2022/05/06 05:41:37;;;;;;;;;;;;;;;;;;;;;
2022/05/06 05:50:09;;;;;;;18.43;15.17;;;12.90;99.90;;;;;;4835167;29;20518;-89
2022/05/06 05:52:49;;;;;;;22.87;17.47;;;12.90;99.90;;;;;;4839371;29;20458;-89
2022/05/06 05:55:18;;;;;;;18.27;16.57;;;13.00;99.90;;;;;;4837800;29;20451;-90
2022/05/06 05:57:46;;;;;;;18.00;16.20;;;12.90;99.90;;;;;;4841465;29;20297;-90
2022/05/06 06:00:45;;;;;;;18.37;16.57;;;12.90;99.90;;;;;;4847543;29;20439;-90
2022/05/06 06:03:59;;;;;;;22.87;17.77;;;12.90;99.90;;;;;;4839997;29;20450;-90
2022/05/06 06:06:27;;;;;;;19.30;17.33;;;13.10;99.90;;;;;;4839073;29;20447;-90
2022/05/06 06:08:56;;;;;;;19.67;17.60;;;13.00;99.90;;;;;;4848204;29;20657;-89
2022/05/06 06:11:25;;;;;;;19.53;17.63;;;12.80;99.90;;;;;;4828821;29;20977;-90
2022/05/06 06:13:59;;;;;;;20.00;16.30;;;12.70;99.90;;;;;;4846717;29;20453;-89
2022/05/06 06:16:29;;;;;;;16.00;14.33;;;12.50;99.90;;;;;;4832691;29;20561;-90
2022/05/06 06:18:58;;;;;;;18.47;16.57;;;12.50;99.90;;;;;;4850993;29;22208;-89
2022/05/06 06:21:30;;;;;;;17.53;15.70;;;12.60;99.90;;;;;;4836278;29;20507;-89
2022/05/06 06:23:55;;;;;;;17.40;15.60;;;12.40;99.90;;;;;;4849815;29;21212;-87
2022/05/06 06:26:24;;;;;;;18.80;15.33;;;12.20;99.90;;;;;;4830071;29;20443;-89
2022/05/06 06:28:49;;;;;;;18.23;15.77;;;12.30;99.90;;;;;;4831842;29;20627;-89
2022/05/06 06:31:18;;;;;;;16.83;15.10;;;12.40;99.90;;;;;;4832290;29;20467;-89
2022/05/06 06:33:46;;;;;;;19.80;16.33;;;12.40;99.90;;;;;;4834707;29;20262;-90
2022/05/06 06:36:19;;;;;;;16.20;14.60;;;12.50;99.90;;;;;;4845677;29;20502;-90
2022/05/06 06:38:47;;;;;;;16.73;15.10;;;12.60;99.90;;;;;;4841546;29;20840;-90
2022/05/06 06:41:12;;;;;;;15.77;14.20;;;12.70;99.90;;;;;;4861304;29;20471;-89
2022/05/06 06:43:38;;;;;;;16.90;15.20;;;12.80;99.90;;;;;;4863703;29;20880;-89
2022/05/06 06:46:07;;;;;;;16.20;14.37;;;12.70;99.90;;;;;;4851293;29;20190;-89
2022/05/06 06:48:41;;;;;;;17.00;14.30;;;12.60;99.90;;;;;;4835464;29;20205;-89
2022/05/06 06:51:51;;;;;;;17.97;15.27;;;12.50;99.90;;;;;;4850584;29;20812;-90
2022/05/06 06:54:29;;;;;;;17.60;14.73;;;12.50;99.90;;;;;;4845348;29;20499;-90
2022/05/06 06:57:15;;;;;;;15.83;14.17;;;12.50;99.90;;;;;;4846556;29;21040;-89
2022/05/06 06:59:41;;;;;;;17.90;14.20;;;12.50;99.90;;;;;;4846923;29;20459;-89
2022/05/06 07:02:09;;;;;;;18.23;15.03;;;12.30;99.90;;;;;;4843275;29;20277;-89
2022/05/06 07:04:36;;;;;;;16.37;14.23;;;12.30;99.90;;;;;;4859770;29;20289;-89
2022/05/06 07:12:48;;;;;;;16.57;14.87;;;12.50;99.90;;;;;;4848292;29;20911;-89
2022/05/06 07:15:20;;;;;;;15.83;14.03;;;12.70;99.90;;;;;;4858589;29;20447;-90
2022/05/06 07:17:46;;;;;;;14.60;13.10;;;12.40;99.90;;;;;;4850977;29;20457;-89
2022/05/06 07:20:18;;;;;;;16.13;14.53;;;12.30;99.90;;;;;;4830639;29;20464;-89
2022/05/06 07:22:49;;;;;;;17.40;15.57;;;12.40;99.90;;;;;;4860195;29;20257;-89
2022/05/06 07:25:18;;;;;;;16.53;14.83;;;12.10;99.90;;;;;;4841672;29;20470;-90
2022/05/06 07:27:47;;;;;;;15.80;14.20;;;12.10;99.90;;;;;;4829108;29;20439;-89
2022/05/06 07:30:18;;;;;;;17.60;14.83;;;12.10;99.90;;;;;;4837522;29;20475;-89
2022/05/06 07:32:46;;;;;;;16.23;14.57;;;12.10;99.90;;;;;;4843125;29;20850;-89
2022/05/06 07:35:20;;;;;;;15.10;13.50;;;12.40;99.90;;;;;;4861284;29;20454;-89
2022/05/06 07:37:56;;;;;;;14.77;13.27;;;12.20;99.90;;;;;;4832363;29;20459;-90
2022/05/06 07:40:27;;;;;;;15.70;14.10;;;12.10;99.90;;;;;;4841802;29;20447;-89
2022/05/06 07:42:55;;;;;;;14.30;13.00;;;12.10;99.90;;;;;;4843438;29;20803;-90
2022/05/06 07:45:36;;;;;;;15.50;14.10;;;12.30;99.90;;;;;;4842358;29;20454;-89
2022/05/06 07:48:28;;;;;;;13.77;12.47;;;12.40;99.90;;;;;;4844880;29;20443;-89
2022/05/06 07:50:58;;;;;;;15.20;13.50;;;12.20;99.90;;;;;;4845113;29;20459;-89
2022/05/06 07:53:30;;;;;;;14.83;13.43;;;12.30;99.90;;;;;;4839794;29;20805;-89
2022/05/06 07:55:58;;;;;;;13.43;12.03;;;12.40;99.90;;;;;;4830364;29;20590;-89
2022/05/06 07:58:27;;;;;;;14.40;12.90;;;12.40;99.90;;;;;;4847032;29;20439;-90
2022/05/06 08:01:02;;;;;;;15.80;13.60;;;12.50;99.90;;;;;;4846605;29;20455;-89
2022/05/06 08:06:17;;;;;;;15.07;12.47;;;12.40;99.90;;;;;;4848868;29;20455;-90
2022/05/06 08:08:47;;;;;;;17.37;12.90;;;12.60;99.90;;;;;;4842121;29;20462;-89
2022/05/06 08:11:29;;;;;;;15.70;12.77;;;12.70;99.90;;;;;;4846157;29;20446;-90
2022/05/06 08:13:57;;;;;;;12.93;11.73;;;13.00;99.90;;;;;;4845222;29;20447;-89
2022/05/06 08:16:50;;;;;;;20.67;12.00;;;13.30;99.90;;;;;;4836538;29;20469;-89
2022/05/06 08:19:28;;;;;;;13.17;11.83;;;13.30;99.90;;;;;;4840149;29;21180;-89
2022/05/06 08:22:11;;;;;;;13.03;11.83;;;13.40;99.90;;;;;;4841127;29;20456;-89
2022/05/06 08:24:38;;;;;;;13.40;11.00;;;13.50;99.90;;;;;;4818786;29;20715;-89
2022/05/06 08:27:15;;;;;;;13.00;11.13;;;13.50;99.90;;;;;;4838407;29;20447;-89
2022/05/06 08:29:59;;;;;;;13.10;11.67;;;13.50;99.90;;;;;;4844163;29;20486;-90
2022/05/06 08:32:56;;;;;;;12.27;11.03;;;13.40;99.90;;;;;;4858904;29;20457;-90
2022/05/06 08:38:50;;;;;;;14.10;10.77;;;13.60;99.90;;;;;;4841564;29;20446;-90
2022/05/06 08:41:30;;;;;;;;;;;;;;;;;;;;;
2022/05/06 08:43:58;;;;;;;11.80;10.70;;;13.60;99.90;;;;;;4844270;29;20451;-89
2022/05/06 08:52:16;;;;;;;12.30;11.17;;;13.90;99.90;;;;;;4841752;29;20872;-89
2022/05/06 08:55:18;;;;;;;11.73;10.63;;;13.90;99.90;;;;;;4843302;29;20503;-89
2022/05/06 08:58:03;;;;;;;11.97;10.83;;;14.10;99.90;;;;;;4845576;29;20455;-89
2022/05/06 09:00:38;;;;;;;14.80;12.27;;;14.00;99.90;;;;;;4846870;29;20581;-90
2022/05/06 09:03:05;;;;;;;15.37;12.80;;;14.00;99.90;;;;;;4843189;29;21156;-89
2022/05/06 09:05:58;;;;;;;13.33;12.03;;;13.80;99.90;;;;;;4845239;29;20683;-90
2022/05/06 09:08:36;;;;;;;13.07;11.77;;;13.60;99.90;;;;;;4827987;29;24602;-89
2022/05/06 09:14:27;;;;;;;;;;;;;;;;;;;;;
2022/05/06 09:17:05;;;;;;;12.50;11.27;;;13.60;99.90;;;;;;4840718;29;21300;-88
2022/05/06 09:19:38;;;;;;;13.83;12.43;;;13.90;99.90;;;;;;4845627;29;20469;-89
2022/05/06 09:22:09;;;;;;;14.87;13.33;;;14.00;99.90;;;;;;4853246;29;20478;-89
2022/05/06 09:24:47;;;;;;;14.13;12.77;;;14.10;99.90;;;;;;4838221;29;20461;-89
2022/05/06 09:27:23;;;;;;;13.67;12.27;;;14.10;99.90;;;;;;4855573;29;20443;-89
2022/05/06 09:29:56;;;;;;;13.33;11.33;;;14.40;99.90;;;;;;4844688;29;21166;-89
2022/05/06 09:32:36;;;;;;;14.67;12.07;;;14.50;99.90;;;;;;4841843;29;20534;-89
2022/05/06 09:35:09;;;;;;;14.50;11.77;;;15.00;99.90;;;;;;4860247;29;20574;-89
2022/05/06 09:37:45;;;;;;;14.90;11.03;;;15.20;99.90;;;;;;4848300;29;20509;-89
2022/05/06 09:40:45;;;;;;;14.13;10.80;;;15.20;99.90;;;;;;4832683;29;20633;-88
2022/05/06 09:43:17;;;;;;;12.20;11.07;;;15.40;99.90;;;;;;4830081;29;20616;-88
2022/05/06 09:45:48;;;;;;;13.40;12.00;;;15.30;99.90;;;;;;4857636;29;20450;-89
2022/05/06 09:48:16;;;;;;;13.47;12.17;;;15.60;99.90;;;;;;4840856;29;20442;-89
2022/05/06 09:50:45;;;;;;;12.07;10.90;;;15.50;99.90;;;;;;4840633;29;20479;-89
2022/05/06 09:53:19;;;;;;;12.37;11.20;;;15.30;99.90;;;;;;4834826;29;20455;-88
2022/05/06 09:55:54;;;;;;;11.37;10.37;;;15.30;99.90;;;;;;4842986;29;20549;-88
2022/05/06 09:58:45;;;;;;;11.77;10.50;;;15.30;99.90;;;;;;4839207;29;20461;-89
2022/05/06 10:01:18;;;;;;;13.23;9.90;;;15.70;99.90;;;;;;4837057;29;20507;-88
2022/05/06 10:03:46;;;;;;;10.90;9.70;;;16.30;99.90;;;;;;4838414;29;20545;-88
2022/05/06 10:06:22;;;;;;;10.60;9.60;;;16.50;99.90;;;;;;4836015;29;20446;-89
2022/05/06 10:08:50;;;;;;;10.30;8.60;;;16.90;99.90;;;;;;4837571;29;20548;-87
2022/05/06 10:11:37;;;;;;;10.97;9.87;;;17.10;99.90;;;;;;4838026;29;20456;-89
2022/05/06 10:14:06;;;;;;;12.00;9.27;;;17.20;99.90;;;;;;4844311;29;20619;-89
2022/05/06 10:16:36;;;;;;;9.73;8.57;;;17.30;99.90;;;;;;4853681;29;20459;-89
2022/05/06 10:19:08;;;;;;;11.87;9.50;;;17.60;99.90;;;;;;4841236;29;20524;-89
2022/05/06 10:21:47;;;;;;;10.40;9.40;;;16.60;99.90;;;;;;4843788;29;20487;-89
2022/05/06 10:24:16;;;;;;;12.00;10.97;;;16.70;99.90;;;;;;4846270;29;20891;-89
2022/05/06 10:27:23;;;;;;;11.40;10.00;;;16.40;99.90;;;;;;4847431;29;21252;-89
2022/05/06 10:33:17;;;;;;;9.93;8.87;;;16.40;99.90;;;;;;4841934;29;20491;-89
2022/05/06 10:35:51;;;;;;;10.00;9.10;;;16.70;99.90;;;;;;4840193;29;21048;-88
2022/05/06 10:38:22;;;;;;;10.73;9.73;;;16.70;99.90;;;;;;4858637;29;20825;-89
2022/05/06 10:41:28;;;;;;;10.53;9.60;;;16.90;99.90;;;;;;4846495;29;20454;-89
2022/05/06 10:43:57;;;;;;;11.90;10.63;;;17.30;99.90;;;;;;4835189;29;20455;-87
2022/05/06 10:47:00;;;;;;;10.43;9.37;;;17.10;99.90;;;;;;4837029;29;20451;-88
2022/05/06 10:49:37;;;;;;;11.30;8.23;;;16.80;99.90;;;;;;4842656;29;21564;-89
2022/05/06 10:52:18;;;;;;;8.77;7.63;;;17.00;99.90;;;;;;4853400;29;20557;-90
2022/05/06 10:55:00;;;;;;;9.00;8.20;;;17.70;99.90;;;;;;4840631;29;20447;-90
2022/05/06 10:57:37;;;;;;;8.70;7.90;;;18.40;99.90;;;;;;4842276;29;20759;-89
2022/05/06 11:00:50;;;;;;;;;;;;;;;;;;;;;
2022/05/06 11:03:20;;;;;;;10.40;8.73;;;18.80;99.90;;;;;;4839823;29;20455;-88
2022/05/06 11:05:52;;;;;;;8.53;7.53;;;18.80;99.60;;;;;;4841108;29;20526;-89
2022/05/06 11:08:21;;;;;;;8.73;7.83;;;18.90;99.90;;;;;;4852764;29;20778;-90
2022/05/06 11:10:49;;;;;;;9.40;8.60;;;19.10;99.90;;;;;;4836931;29;21000;-89
2022/05/06 11:13:45;;;;;;;9.10;8.40;;;19.40;99.70;;;;;;4836587;29;20455;-89
2022/05/06 11:16:12;;;;;;;9.30;8.50;;;19.10;99.90;;;;;;4842171;29;20846;-89
2022/05/06 11:18:45;;;;;;;10.53;8.50;;;19.10;99.90;;;;;;4833546;29;21194;-89
2022/05/06 11:24:36;;;;;;;9.20;8.40;;;19.20;98.70;;;;;;4841017;29;21479;-88
2022/05/06 11:27:30;;;;;;;10.47;8.77;;;19.10;97.50;;;;;;4851276;29;20909;-88
2022/05/06 11:29:59;;;;;;;9.13;8.33;;;18.90;99.20;;;;;;4833623;29;20645;-89
2022/05/06 11:32:29;;;;;;;9.20;8.37;;;19.10;99.10;;;;;;4836762;29;20506;-87
2022/05/06 11:35:10;;;;;;;8.93;8.13;;;18.40;99.90;;;;;;4832643;29;20503;-88
2022/05/06 11:37:44;;;;;;;9.17;8.20;;;18.10;99.90;;;;;;4832974;29;20459;-88
2022/05/06 11:43:17;;;;;;;8.70;8.00;;;18.30;99.90;;;;;;4837562;29;20447;-88
2022/05/06 11:48:56;;;;;;;10.90;8.67;;;17.90;99.90;;;;;;4831433;29;20952;-88
2022/05/06 11:51:48;;;;;;;9.43;8.63;;;17.90;99.90;;;;;;4834030;29;20463;-88
2022/05/06 11:54:23;;;;;;;8.27;7.57;;;18.00;99.90;;;;;;4832426;29;20870;-88
2022/05/06 11:56:50;;;;;;;7.83;7.17;;;18.20;99.90;;;;;;4838531;29;20461;-88
2022/05/06 11:59:20;;;;;;;8.80;7.90;;;18.50;99.90;;;;;;4834608;29;20463;-88
2022/05/06 12:01:47;;;;;;;7.93;7.23;;;18.40;99.90;;;;;;4850363;29;20459;-88
2022/05/06 12:04:13;;;;;;;11.43;8.40;;;18.40;99.80;;;;;;4854108;29;20906;-87
2022/05/06 12:06:44;;;;;;;12.70;8.77;;;18.20;99.90;;;;;;4829211;29;20707;-88
2022/05/06 12:09:12;;;;;;;9.37;7.83;;;18.10;99.90;;;;;;4833637;29;21389;-87
2022/05/06 12:11:39;;;;;;;9.30;8.50;;;18.00;99.90;;;;;;4832852;29;20463;-88
2022/05/06 12:14:27;;;;;;;9.33;7.77;;;18.00;99.90;;;;;;4834546;29;20513;-88
2022/05/06 12:16:56;;;;;;;9.80;8.53;;;18.10;99.90;;;;;;4833982;29;20463;-88
2022/05/06 12:19:41;;;;;;;9.20;8.30;;;18.30;99.90;;;;;;4826003;29;20483;-88
2022/05/06 12:22:09;;;;;;;8.53;7.70;;;18.00;99.90;;;;;;4839407;29;20463;-88
2022/05/06 12:24:41;;;;;;;9.77;8.80;;;18.20;99.90;;;;;;4831549;29;20535;-88
2022/05/06 12:27:08;;;;;;;7.73;7.03;;;18.50;99.00;;;;;;4835468;29;20467;-89
2022/05/06 12:29:45;;;;;;;8.33;7.60;;;18.70;99.20;;;;;;4833446;29;20565;-88
2022/05/06 12:32:12;;;;;;;9.30;8.40;;;18.90;99.30;;;;;;4837364;29;20836;-89
2022/05/06 12:34:37;;;;;;;8.33;7.53;;;18.70;99.70;;;;;;4826737;29;20609;-88
2022/05/06 12:37:20;;;;;;;9.27;8.47;;;19.30;98.30;;;;;;4834297;29;20308;-89
2022/05/06 12:39:50;;;;;;;8.43;7.77;;;19.10;97.50;;;;;;4831082;29;20201;-89
2022/05/06 12:42:18;;;;;;;7.77;7.07;;;19.50;98.10;;;;;;4847587;29;21419;-88
2022/05/06 12:44:48;;;;;;;7.90;7.20;;;19.40;98.60;;;;;;4833604;29;20459;-88
2022/05/06 12:50:09;;;;;;;9.33;8.43;;;18.90;99.90;;;;;;4836227;29;20651;-88
2022/05/06 12:52:38;;;;;;;10.67;8.30;;;18.50;99.90;;;;;;4834409;29;20686;-89
2022/05/06 12:55:08;;;;;;;12.43;8.40;;;18.20;99.90;;;;;;4855403;29;20538;-89
2022/05/06 12:57:36;;;;;;;8.80;7.87;;;18.30;99.90;;;;;;4842930;29;20466;-89
2022/05/06 13:00:21;;;;;;;8.90;7.10;;;18.60;98.90;;;;;;4840941;29;20582;-88
2022/05/06 13:02:47;;;;;;;8.93;8.03;;;18.60;98.30;;;;;;4855725;29;20881;-89
2022/05/06 13:05:29;;;;;;;11.23;9.27;;;19.30;99.30;;;;;;4855929;29;20772;-88
2022/05/06 13:07:58;;;;;;;8.90;8.10;;;18.90;99.60;;;;;;4820171;29;20454;-89
2022/05/06 13:10:45;;;;;;;8.67;7.80;;;18.80;98.90;;;;;;4847605;29;20504;-89
2022/05/06 13:13:29;;;;;;;10.07;7.40;;;18.80;99.40;;;;;;4839480;29;20450;-89
2022/05/06 13:15:59;;;;;;;8.13;7.43;;;18.90;99.90;;;;;;4834174;29;20862;-88
2022/05/06 13:18:37;;;;;;;7.77;7.13;;;18.90;99.90;;;;;;4819520;29;20454;-89
2022/05/06 13:21:07;;;;;;;7.80;7.07;;;18.70;99.20;;;;;;4843522;29;20551;-88
2022/05/06 13:23:37;;;;;;;7.80;6.87;;;18.80;99.90;;;;;;4841395;29;20801;-88
2022/05/06 13:26:06;;;;;;;8.10;7.30;;;18.80;99.30;;;;;;4839387;29;20221;-88
2022/05/06 13:28:31;;;;;;;9.53;7.20;;;18.90;98.00;;;;;;4853443;29;20725;-88
2022/05/06 13:30:57;;;;;;;8.33;7.60;;;18.70;99.90;;;;;;4829538;29;20490;-88
2022/05/06 13:33:27;;;;;;;8.53;7.83;;;18.60;99.90;;;;;;4857688;29;20195;-88
2022/05/06 13:35:57;;;;;;;8.33;7.53;;;18.60;98.40;;;;;;4841424;29;20289;-89
2022/05/06 13:38:23;;;;;;;7.70;7.00;;;18.60;99.20;;;;;;4844435;29;20467;-88
2022/05/06 13:40:49;;;;;;;8.27;7.47;;;18.70;98.50;;;;;;4845539;29;20462;-89
2022/05/06 13:43:17;;;;;;;7.30;6.70;;;18.50;98.50;;;;;;4846210;29;20197;-89
2022/05/06 13:45:43;;;;;;;9.37;8.47;;;18.60;97.70;;;;;;4845536;29;20194;-88
2022/05/06 13:48:11;;;;;;;8.90;8.07;;;18.60;98.40;;;;;;4846914;29;20484;-89